sensor_id;sensor_type;location;lat;lon;timestamp;temperature;humidity
18779;DHT22;9518;51.720;14.384;2022-08-25T00:01:49;17.50;99.90
18779;DHT22;9518;51.720;14.384;2022-08-25T00:04:19;17.50;99.90
18779;DHT22;9518;51.720;14.384;2022-08-25T00:06:47;17.50;99.90
18779;DHT22;9518;51.720;14.384;2022-08-25T00:09:16;17.50;99.90
18779;DHT22;9518;51.720;14.384;2022-08-25T00:11:45;17.40;99.90
18779;DHT22;9518;51.720;14.384;2022-08-25T00:14:16;17.30;99.90
18779;DHT22;9518;51.720;14.384;2022-08-25T00:16:43;17.30;99.90
18779;DHT22;9518;51.720;14.384;2022-08-25T00:19:12;17.30;99.90
18779;DHT22;9518;51.720;14.384;2022-08-25T00:21:41;17.20;99.90
18779;DHT22;9518;51.720;14.384;2022-08-25T00:24:10;17.20;99.90
18779;DHT22;9518;51.720;14.384;2022-08-25T00:26:38;17.20;99.90
18779;DHT22;9518;51.720;14.384;2022-08-25T00:29:05;17.20;99.90
18779;DHT22;9518;51.720;14.384;2022-08-25T00:31:33;17.20;99.90
18779;DHT22;9518;51.720;14.384;2022-08-25T00:34:00;17.10;99.90
18779;DHT22;9518;51.720;14.384;2022-08-25T00:36:27;17.10;99.90
18779;DHT22;9518;51.720;14.384;2022-08-25T00:38:56;17.10;99.90
18779;DHT22;9518;51.720;14.384;2022-08-25T00:41:24;17.10;99.90
18779;DHT22;9518;51.720;14.384;2022-08-25T00:43:55;17.10;99.90
18779;DHT22;9518;51.720;14.384;2022-08-25T00:46:32;17.20;99.90
18779;DHT22;9518;51.720;14.384;2022-08-25T00:49:04;17.10;99.90
18779;DHT22;9518;51.720;14.384;2022-08-25T00:51:36;17.10;99.90
18779;DHT22;9518;51.720;14.384;2022-08-25T00:54:06;17.10;99.90
18779;DHT22;9518;51.720;14.384;2022-08-25T00:56:34;17.00;99.90
18779;DHT22;9518;51.720;14.384;2022-08-25T00:59:02;17.00;99.90
18779;DHT22;9518;51.720;14.384;2022-08-25T01:01:30;16.90;99.90
18779;DHT22;9518;51.720;14.384;2022-08-25T01:03:57;16.80;99.90
18779;DHT22;9518;51.720;14.384;2022-08-25T01:06:24;16.80;99.90
18779;DHT22;9518;51.720;14.384;2022-08-25T01:08:51;16.80;99.90
18779;DHT22;9518;51.720;14.384;2022-08-25T01:11:20;16.80;99.90
18779;DHT22;9518;51.720;14.384;2022-08-25T01:13:53;16.80;99.90
18779;DHT22;9518;51.720;14.384;2022-08-25T01:16:21;16.80;99.90
18779;DHT22;9518;51.720;14.384;2022-08-25T01:18:51;16.90;99.90
18779;DHT22;9518;51.720;14.384;2022-08-25T01:21:22;17.00;99.90
18779;DHT22;9518;51.720;14.384;2022-08-25T01:23:50;17.10;99.90
18779;DHT22;9518;51.720;14.384;2022-08-25T01:26:19;17.00;99.90
18779;DHT22;9518;51.720;14.384;2022-08-25T01:28:47;16.90;99.90
18779;DHT22;9518;51.720;14.384;2022-08-25T01:31:33;16.80;99.90
18779;DHT22;9518;51.720;14.384;2022-08-25T01:34:01;16.70;99.90
18779;DHT22;9518;51.720;14.384;2022-08-25T01:36:30;16.70;99.90
18779;DHT22;9518;51.720;14.384;2022-08-25T01:38:57;16.60;99.90
18779;DHT22;9518;51.720;14.384;2022-08-25T01:41:30;16.60;99.90
18779;DHT22;9518;51.720;14.384;2022-08-25T01:44:01;16.60;99.90
18779;DHT22;9518;51.720;14.384;2022-08-25T01:46:31;16.70;99.90
18779;DHT22;9518;51.720;14.384;2022-08-25T01:48:58;16.60;99.90
18779;DHT22;9518;51.720;14.384;2022-08-25T01:51:29;16.60;99.90
18779;DHT22;9518;51.720;14.384;2022-08-25T01:53:59;16.60;99.90
18779;DHT22;9518;51.720;14.384;2022-08-25T01:56:26;16.60;99.90
18779;DHT22;9518;51.720;14.384;2022-08-25T01:58:52;16.60;99.90
18779;DHT22;9518;51.720;14.384;2022-08-25T02:01:22;16.50;99.90
18779;DHT22;9518;51.720;14.384;2022-08-25T02:03:52;16.50;99.90
18779;DHT22;9518;51.720;14.384;2022-08-25T02:06:22;16.50;99.90
18779;DHT22;9518;51.720;14.384;2022-08-25T02:08:53;16.40;99.90
18779;DHT22;9518;51.720;14.384;2022-08-25T02:11:20;16.40;99.90
18779;DHT22;9518;51.720;14.384;2022-08-25T02:13:49;16.40;99.90
18779;DHT22;9518;51.720;14.384;2022-08-25T02:16:19;16.30;99.90
18779;DHT22;9518;51.720;14.384;2022-08-25T02:18:46;16.30;99.90
18779;DHT22;9518;51.720;14.384;2022-08-25T02:21:14;16.30;99.90
18779;DHT22;9518;51.720;14.384;2022-08-25T02:23:41;16.30;99.90
18779;DHT22;9518;51.720;14.384;2022-08-25T02:26:10;16.30;99.90
18779;DHT22;9518;51.720;14.384;2022-08-25T02:28:38;16.30;99.90
18779;DHT22;9518;51.720;14.384;2022-08-25T02:31:05;16.20;99.90
18779;DHT22;9518;51.720;14.384;2022-08-25T02:33:32;16.20;99.90
18779;DHT22;9518;51.720;14.384;2022-08-25T02:36:00;16.20;99.90
18779;DHT22;9518;51.720;14.384;2022-08-25T02:38:27;16.20;99.90
18779;DHT22;9518;51.720;14.384;2022-08-25T02:40:55;16.10;99.90
18779;DHT22;9518;51.720;14.384;2022-08-25T02:43:23;16.10;99.90
18779;DHT22;9518;51.720;14.384;2022-08-25T02:45:51;16.10;99.90
18779;DHT22;9518;51.720;14.384;2022-08-25T02:48:18;16.10;99.90
18779;DHT22;9518;51.720;14.384;2022-08-25T02:50:46;16.20;99.90
18779;DHT22;9518;51.720;14.384;2022-08-25T02:53:14;16.20;99.90
18779;DHT22;9518;51.720;14.384;2022-08-25T02:55:41;16.20;99.90
18779;DHT22;9518;51.720;14.384;2022-08-25T02:58:08;16.20;99.90
18779;DHT22;9518;51.720;14.384;2022-08-25T03:00:36;16.10;99.90
18779;DHT22;9518;51.720;14.384;2022-08-25T03:03:04;16.10;99.90
18779;DHT22;9518;51.720;14.384;2022-08-25T03:05:31;16.10;99.90
18779;DHT22;9518;51.720;14.384;2022-08-25T03:07:58;16.10;99.90
18779;DHT22;9518;51.720;14.384;2022-08-25T03:10:25;16.10;99.90
18779;DHT22;9518;51.720;14.384;2022-08-25T03:12:52;16.00;99.90
18779;DHT22;9518;51.720;14.384;2022-08-25T03:15:19;16.00;99.90
18779;DHT22;9518;51.720;14.384;2022-08-25T03:17:47;16.00;99.90
18779;DHT22;9518;51.720;14.384;2022-08-25T03:20:15;16.00;99.90
18779;DHT22;9518;51.720;14.384;2022-08-25T03:22:42;15.90;99.90
18779;DHT22;9518;51.720;14.384;2022-08-25T03:25:10;15.90;99.90
18779;DHT22;9518;51.720;14.384;2022-08-25T03:27:54;15.90;99.90
18779;DHT22;9518;51.720;14.384;2022-08-25T03:30:21;15.90;99.90
18779;DHT22;9518;51.720;14.384;2022-08-25T03:32:50;16.00;99.90
18779;DHT22;9518;51.720;14.384;2022-08-25T03:35:17;16.10;99.90
18779;DHT22;9518;51.720;14.384;2022-08-25T03:37:45;16.10;99.90
18779;DHT22;9518;51.720;14.384;2022-08-25T03:40:14;16.00;99.90
18779;DHT22;9518;51.720;14.384;2022-08-25T03:42:43;16.00;99.90
18779;DHT22;9518;51.720;14.384;2022-08-25T03:45:11;15.90;99.90
18779;DHT22;9518;51.720;14.384;2022-08-25T03:47:39;15.90;99.90
18779;DHT22;9518;51.720;14.384;2022-08-25T03:50:10;15.80;99.90
18779;DHT22;9518;51.720;14.384;2022-08-25T03:52:37;15.80;99.90
18779;DHT22;9518;51.720;14.384;2022-08-25T03:55:06;15.80;99.90
18779;DHT22;9518;51.720;14.384;2022-08-25T03:57:34;15.80;99.90
18779;DHT22;9518;51.720;14.384;2022-08-25T04:00:03;15.80;99.90
18779;DHT22;9518;51.720;14.384;2022-08-25T04:02:30;15.80;99.90
18779;DHT22;9518;51.720;14.384;2022-08-25T04:04:58;15.80;99.90
18779;DHT22;9518;51.720;14.384;2022-08-25T04:07:26;15.80;99.90
18779;DHT22;9518;51.720;14.384;2022-08-25T04:09:53;15.80;99.90
18779;DHT22;9518;51.720;14.384;2022-08-25T04:12:21;15.90;99.90
18779;DHT22;9518;51.720;14.384;2022-08-25T04:14:48;16.00;99.90
18779;DHT22;9518;51.720;14.384;2022-08-25T04:17:16;16.10;99.90
18779;DHT22;9518;51.720;14.384;2022-08-25T04:19:43;16.20;99.90
18779;DHT22;9518;51.720;14.384;2022-08-25T04:22:10;16.20;99.90
18779;DHT22;9518;51.720;14.384;2022-08-25T04:24:38;16.20;99.90
18779;DHT22;9518;51.720;14.384;2022-08-25T04:27:05;16.20;99.90
18779;DHT22;9518;51.720;14.384;2022-08-25T04:29:32;16.20;99.90
18779;DHT22;9518;51.720;14.384;2022-08-25T04:31:59;16.20;99.90
18779;DHT22;9518;51.720;14.384;2022-08-25T04:34:27;16.20;99.90
18779;DHT22;9518;51.720;14.384;2022-08-25T04:36:54;16.30;99.90
18779;DHT22;9518;51.720;14.384;2022-08-25T04:39:21;16.30;99.90
18779;DHT22;9518;51.720;14.384;2022-08-25T04:41:49;16.30;99.90
18779;DHT22;9518;51.720;14.384;2022-08-25T04:44:17;16.30;99.90
18779;DHT22;9518;51.720;14.384;2022-08-25T04:46:43;16.40;99.90
18779;DHT22;9518;51.720;14.384;2022-08-25T04:49:10;16.40;99.90
18779;DHT22;9518;51.720;14.384;2022-08-25T04:51:40;16.60;99.90
18779;DHT22;9518;51.720;14.384;2022-08-25T04:54:08;16.60;99.90
18779;DHT22;9518;51.720;14.384;2022-08-25T04:56:38;16.70;99.90
18779;DHT22;9518;51.720;14.384;2022-08-25T04:59:09;16.80;99.90
18779;DHT22;9518;51.720;14.384;2022-08-25T05:01:37;16.90;99.90
18779;DHT22;9518;51.720;14.384;2022-08-25T05:04:06;17.00;99.90
18779;DHT22;9518;51.720;14.384;2022-08-25T05:06:33;17.00;99.90
18779;DHT22;9518;51.720;14.384;2022-08-25T05:09:01;17.10;99.90
18779;DHT22;9518;51.720;14.384;2022-08-25T05:11:28;17.20;99.90
18779;DHT22;9518;51.720;14.384;2022-08-25T05:13:57;17.30;99.90
18779;DHT22;9518;51.720;14.384;2022-08-25T05:16:25;17.40;99.90
18779;DHT22;9518;51.720;14.384;2022-08-25T05:18:53;17.50;99.90
18779;DHT22;9518;51.720;14.384;2022-08-25T05:21:23;17.70;99.90
18779;DHT22;9518;51.720;14.384;2022-08-25T05:23:53;17.80;99.90
18779;DHT22;9518;51.720;14.384;2022-08-25T05:26:21;17.90;99.90
18779;DHT22;9518;51.720;14.384;2022-08-25T05:28:50;18.00;99.90
18779;DHT22;9518;51.720;14.384;2022-08-25T05:31:18;18.10;99.90
18779;DHT22;9518;51.720;14.384;2022-08-25T05:33:47;18.20;99.90
18779;DHT22;9518;51.720;14.384;2022-08-25T05:36:15;18.30;99.90
18779;DHT22;9518;51.720;14.384;2022-08-25T05:38:43;18.40;99.90
18779;DHT22;9518;51.720;14.384;2022-08-25T05:41:12;18.50;99.90
18779;DHT22;9518;51.720;14.384;2022-08-25T05:43:41;18.60;99.90
18779;DHT22;9518;51.720;14.384;2022-08-25T05:46:09;18.80;99.90
18779;DHT22;9518;51.720;14.384;2022-08-25T05:48:37;18.90;99.90
18779;DHT22;9518;51.720;14.384;2022-08-25T05:51:06;19.00;99.90
18779;DHT22;9518;51.720;14.384;2022-08-25T05:53:35;19.20;99.90
18779;DHT22;9518;51.720;14.384;2022-08-25T05:56:02;19.30;99.90
18779;DHT22;9518;51.720;14.384;2022-08-25T05:58:30;19.40;99.90
18779;DHT22;9518;51.720;14.384;2022-08-25T06:00:58;19.60;99.90
18779;DHT22;9518;51.720;14.384;2022-08-25T06:03:46;19.70;99.90
18779;DHT22;9518;51.720;14.384;2022-08-25T06:06:14;19.80;99.90
18779;DHT22;9518;51.720;14.384;2022-08-25T06:08:41;19.90;99.90
18779;DHT22;9518;51.720;14.384;2022-08-25T06:11:09;20.00;99.90
18779;DHT22;9518;51.720;14.384;2022-08-25T06:13:37;20.10;99.90
18779;DHT22;9518;51.720;14.384;2022-08-25T06:16:05;20.30;99.90
18779;DHT22;9518;51.720;14.384;2022-08-25T06:18:32;20.50;99.90
18779;DHT22;9518;51.720;14.384;2022-08-25T06:21:05;20.70;99.90
18779;DHT22;9518;51.720;14.384;2022-08-25T06:23:36;20.80;99.90
18779;DHT22;9518;51.720;14.384;2022-08-25T06:26:03;20.90;99.90
18779;DHT22;9518;51.720;14.384;2022-08-25T06:28:30;21.00;99.90
18779;DHT22;9518;51.720;14.384;2022-08-25T06:30:58;20.80;99.90
18779;DHT22;9518;51.720;14.384;2022-08-25T06:33:25;20.70;99.90
18779;DHT22;9518;51.720;14.384;2022-08-25T06:35:53;20.60;99.90
18779;DHT22;9518;51.720;14.384;2022-08-25T06:38:21;20.70;99.90
18779;DHT22;9518;51.720;14.384;2022-08-25T06:40:49;20.70;99.90
18779;DHT22;9518;51.720;14.384;2022-08-25T06:43:17;20.80;99.90
18779;DHT22;9518;51.720;14.384;2022-08-25T06:45:44;21.00;99.90
18779;DHT22;9518;51.720;14.384;2022-08-25T06:48:11;21.10;99.90
18779;DHT22;9518;51.720;14.384;2022-08-25T06:50:38;21.30;99.90
18779;DHT22;9518;51.720;14.384;2022-08-25T06:53:05;21.50;99.90
18779;DHT22;9518;51.720;14.384;2022-08-25T06:55:33;21.70;99.90
18779;DHT22;9518;51.720;14.384;2022-08-25T06:58:02;21.80;99.90
18779;DHT22;9518;51.720;14.384;2022-08-25T07:00:29;22.00;99.90
18779;DHT22;9518;51.720;14.384;2022-08-25T07:02:57;21.90;99.90
18779;DHT22;9518;51.720;14.384;2022-08-25T07:05:25;21.80;99.90
18779;DHT22;9518;51.720;14.384;2022-08-25T07:07:52;21.80;99.90
18779;DHT22;9518;51.720;14.384;2022-08-25T07:10:19;22.00;99.90
18779;DHT22;9518;51.720;14.384;2022-08-25T07:12:46;22.20;99.90
18779;DHT22;9518;51.720;14.384;2022-08-25T07:15:14;22.30;99.90
18779;DHT22;9518;51.720;14.384;2022-08-25T07:17:41;22.50;99.90
18779;DHT22;9518;51.720;14.384;2022-08-25T07:20:09;22.80;99.90
18779;DHT22;9518;51.720;14.384;2022-08-25T07:22:36;22.90;99.90
18779;DHT22;9518;51.720;14.384;2022-08-25T07:25:03;23.00;99.90
18779;DHT22;9518;51.720;14.384;2022-08-25T07:27:30;23.10;99.90
18779;DHT22;9518;51.720;14.384;2022-08-25T07:29:57;23.30;99.90
18779;DHT22;9518;51.720;14.384;2022-08-25T07:32:25;23.50;99.90
18779;DHT22;9518;51.720;14.384;2022-08-25T07:34:52;23.60;99.90
18779;DHT22;9518;51.720;14.384;2022-08-25T07:37:37;23.60;99.90
18779;DHT22;9518;51.720;14.384;2022-08-25T07:40:04;23.70;99.90
18779;DHT22;9518;51.720;14.384;2022-08-25T07:42:32;23.70;99.90
18779;DHT22;9518;51.720;14.384;2022-08-25T07:45:00;23.60;99.90
18779;DHT22;9518;51.720;14.384;2022-08-25T07:47:29;23.80;99.90
18779;DHT22;9518;51.720;14.384;2022-08-25T07:49:57;23.90;99.90
18779;DHT22;9518;51.720;14.384;2022-08-25T07:52:24;24.00;99.00
18779;DHT22;9518;51.720;14.384;2022-08-25T07:54:51;24.00;94.40
18779;DHT22;9518;51.720;14.384;2022-08-25T07:57:20;23.90;99.90
18779;DHT22;9518;51.720;14.384;2022-08-25T07:59:49;24.00;99.90
18779;DHT22;9518;51.720;14.384;2022-08-25T08:02:16;24.10;99.90
18779;DHT22;9518;51.720;14.384;2022-08-25T08:04:44;24.40;99.90
18779;DHT22;9518;51.720;14.384;2022-08-25T08:07:15;24.40;68.20
18779;DHT22;9518;51.720;14.384;2022-08-25T08:09:48;24.40;1.00
18779;DHT22;9518;51.720;14.384;2022-08-25T08:12:15;24.40;99.90
18779;DHT22;9518;51.720;14.384;2022-08-25T08:14:43;24.40;1.00
18779;DHT22;9518;51.720;14.384;2022-08-25T08:17:10;24.70;1.00
18779;DHT22;9518;51.720;14.384;2022-08-25T08:19:37;24.80;1.00
18779;DHT22;9518;51.720;14.384;2022-08-25T08:22:06;25.00;1.00
18779;DHT22;9518;51.720;14.384;2022-08-25T08:24:33;25.10;1.00
18779;DHT22;9518;51.720;14.384;2022-08-25T08:27:04;25.20;99.90
18779;DHT22;9518;51.720;14.384;2022-08-25T08:29:31;25.40;1.00
18779;DHT22;9518;51.720;14.384;2022-08-25T08:31:58;25.70;1.70
18779;DHT22;9518;51.720;14.384;2022-08-25T08:34:25;25.90;1.00
18779;DHT22;9518;51.720;14.384;2022-08-25T08:36:52;25.90;1.00
18779;DHT22;9518;51.720;14.384;2022-08-25T08:39:21;25.90;1.00
18779;DHT22;9518;51.720;14.384;2022-08-25T08:42:11;25.90;1.00
18779;DHT22;9518;51.720;14.384;2022-08-25T08:44:56;25.80;1.00
18779;DHT22;9518;51.720;14.384;2022-08-25T08:47:31;25.70;1.00
18779;DHT22;9518;51.720;14.384;2022-08-25T08:50:09;25.80;1.00
18779;DHT22;9518;51.720;14.384;2022-08-25T08:52:44;25.90;1.00
18779;DHT22;9518;51.720;14.384;2022-08-25T08:55:22;26.00;1.00
18779;DHT22;9518;51.720;14.384;2022-08-25T08:57:51;26.40;1.00
18779;DHT22;9518;51.720;14.384;2022-08-25T09:00:20;26.70;1.00
18779;DHT22;9518;51.720;14.384;2022-08-25T09:02:51;26.80;1.00
18779;DHT22;9518;51.720;14.384;2022-08-25T09:05:22;26.70;1.00
18779;DHT22;9518;51.720;14.384;2022-08-25T09:07:53;26.60;1.00
18779;DHT22;9518;51.720;14.384;2022-08-25T09:10:23;26.60;1.00
18779;DHT22;9518;51.720;14.384;2022-08-25T09:13:07;26.50;1.00
18779;DHT22;9518;51.720;14.384;2022-08-25T09:15:44;26.50;1.00
18779;DHT22;9518;51.720;14.384;2022-08-25T09:18:41;26.50;1.00
18779;DHT22;9518;51.720;14.384;2022-08-25T09:21:16;26.70;1.00
18779;DHT22;9518;51.720;14.384;2022-08-25T09:24:00;26.80;1.00
18779;DHT22;9518;51.720;14.384;2022-08-25T09:26:34;27.00;1.00
18779;DHT22;9518;51.720;14.384;2022-08-25T09:29:08;27.20;1.00
18779;DHT22;9518;51.720;14.384;2022-08-25T09:31:38;27.50;1.00
18779;DHT22;9518;51.720;14.384;2022-08-25T09:34:10;27.70;99.90
18779;DHT22;9518;51.720;14.384;2022-08-25T09:36:38;28.00;99.90
18779;DHT22;9518;51.720;14.384;2022-08-25T09:39:05;28.60;99.90
18779;DHT22;9518;51.720;14.384;2022-08-25T09:41:44;28.90;99.90
18779;DHT22;9518;51.720;14.384;2022-08-25T09:44:31;29.40;99.90
18779;DHT22;9518;51.720;14.384;2022-08-25T09:47:01;29.30;45.80
18779;DHT22;9518;51.720;14.384;2022-08-25T09:49:34;29.00;50.90
18779;DHT22;9518;51.720;14.384;2022-08-25T09:52:30;29.20;96.30
18779;DHT22;9518;51.720;14.384;2022-08-25T09:55:00;29.30;39.70
18779;DHT22;9518;51.720;14.384;2022-08-25T09:57:32;29.20;26.40
18779;DHT22;9518;51.720;14.384;2022-08-25T10:00:13;29.00;19.90
18779;DHT22;9518;51.720;14.384;2022-08-25T10:02:42;28.80;34.90
18779;DHT22;9518;51.720;14.384;2022-08-25T10:05:19;28.70;52.90
18779;DHT22;9518;51.720;14.384;2022-08-25T10:07:52;28.80;51.20
18779;DHT22;9518;51.720;14.384;2022-08-25T10:10:27;29.10;30.00
18779;DHT22;9518;51.720;14.384;2022-08-25T10:12:56;28.90;10.10
18779;DHT22;9518;51.720;14.384;2022-08-25T10:15:28;28.70;21.80
18779;DHT22;9518;51.720;14.384;2022-08-25T10:17:56;28.70;44.50
18779;DHT22;9518;51.720;14.384;2022-08-25T10:20:41;28.90;23.90
18779;DHT22;9518;51.720;14.384;2022-08-25T10:23:10;29.00;1.00
18779;DHT22;9518;51.720;14.384;2022-08-25T10:25:42;28.60;1.00
18779;DHT22;9518;51.720;14.384;2022-08-25T10:28:18;29.00;1.00
18779;DHT22;9518;51.720;14.384;2022-08-25T10:30:56;29.20;1.00
18779;DHT22;9518;51.720;14.384;2022-08-25T10:33:32;29.50;1.00
18779;DHT22;9518;51.720;14.384;2022-08-25T10:36:13;29.40;1.00
18779;DHT22;9518;51.720;14.384;2022-08-25T10:38:43;29.40;1.00
18779;DHT22;9518;51.720;14.384;2022-08-25T10:41:28;29.70;1.00
18779;DHT22;9518;51.720;14.384;2022-08-25T10:44:12;30.60;1.00
18779;DHT22;9518;51.720;14.384;2022-08-25T10:47:05;31.00;1.00
18779;DHT22;9518;51.720;14.384;2022-08-25T10:49:36;30.70;1.00
18779;DHT22;9518;51.720;14.384;2022-08-25T10:52:13;30.40;1.00
18779;DHT22;9518;51.720;14.384;2022-08-25T10:54:48;30.60;1.00
18779;DHT22;9518;51.720;14.384;2022-08-25T10:57:22;30.60;1.00
18779;DHT22;9518;51.720;14.384;2022-08-25T11:00:05;30.20;1.00
18779;DHT22;9518;51.720;14.384;2022-08-25T11:03:13;29.80;1.00
18779;DHT22;9518;51.720;14.384;2022-08-25T11:05:45;29.80;1.00
18779;DHT22;9518;51.720;14.384;2022-08-25T11:08:16;30.20;1.00
18779;DHT22;9518;51.720;14.384;2022-08-25T11:10:50;30.10;1.00
18779;DHT22;9518;51.720;14.384;2022-08-25T11:13:23;30.30;1.00
18779;DHT22;9518;51.720;14.384;2022-08-25T11:15:56;30.60;1.00
18779;DHT22;9518;51.720;14.384;2022-08-25T11:18:27;30.50;1.00
18779;DHT22;9518;51.720;14.384;2022-08-25T11:21:02;30.60;1.00
18779;DHT22;9518;51.720;14.384;2022-08-25T11:23:36;30.80;1.00
18779;DHT22;9518;51.720;14.384;2022-08-25T11:26:07;30.90;1.00
18779;DHT22;9518;51.720;14.384;2022-08-25T11:28:48;30.90;1.00
18779;DHT22;9518;51.720;14.384;2022-08-25T11:31:19;31.30;1.00
18779;DHT22;9518;51.720;14.384;2022-08-25T11:33:48;31.40;1.00
18779;DHT22;9518;51.720;14.384;2022-08-25T11:36:22;31.90;1.00
18779;DHT22;9518;51.720;14.384;2022-08-25T11:38:59;31.60;1.00
18779;DHT22;9518;51.720;14.384;2022-08-25T11:41:36;31.90;1.00
18779;DHT22;9518;51.720;14.384;2022-08-25T11:44:35;32.00;1.00
18779;DHT22;9518;51.720;14.384;2022-08-25T11:47:19;32.60;1.00
18779;DHT22;9518;51.720;14.384;2022-08-25T11:49:58;33.00;1.00
18779;DHT22;9518;51.720;14.384;2022-08-25T11:52:44;33.50;1.00
18779;DHT22;9518;51.720;14.384;2022-08-25T11:55:15;33.10;1.00
18779;DHT22;9518;51.720;14.384;2022-08-25T11:57:44;32.80;1.00
18779;DHT22;9518;51.720;14.384;2022-08-25T12:00:14;32.60;1.00
18779;DHT22;9518;51.720;14.384;2022-08-25T12:02:44;32.90;1.00
18779;DHT22;9518;51.720;14.384;2022-08-25T12:08:11;33.00;1.00
18779;DHT22;9518;51.720;14.384;2022-08-25T12:10:58;33.00;1.00
18779;DHT22;9518;51.720;14.384;2022-08-25T12:13:41;32.30;1.00
18779;DHT22;9518;51.720;14.384;2022-08-25T12:16:40;32.10;1.00
18779;DHT22;9518;51.720;14.384;2022-08-25T12:19:27;32.30;1.00
18779;DHT22;9518;51.720;14.384;2022-08-25T12:21:57;32.70;1.00
18779;DHT22;9518;51.720;14.384;2022-08-25T12:24:46;32.90;1.00
18779;DHT22;9518;51.720;14.384;2022-08-25T12:27:23;33.50;1.00
18779;DHT22;9518;51.720;14.384;2022-08-25T12:29:56;33.20;1.00
18779;DHT22;9518;51.720;14.384;2022-08-25T12:32:39;32.90;1.00
18779;DHT22;9518;51.720;14.384;2022-08-25T12:35:27;33.10;1.00
18779;DHT22;9518;51.720;14.384;2022-08-25T12:38:01;32.60;1.00
18779;DHT22;9518;51.720;14.384;2022-08-25T12:40:33;32.80;1.00
18779;DHT22;9518;51.720;14.384;2022-08-25T12:43:07;33.40;1.00
18779;DHT22;9518;51.720;14.384;2022-08-25T12:45:40;34.00;1.00
18779;DHT22;9518;51.720;14.384;2022-08-25T12:51:17;34.10;1.00
18779;DHT22;9518;51.720;14.384;2022-08-25T12:53:47;34.30;1.00
18779;DHT22;9518;51.720;14.384;2022-08-25T12:56:28;34.90;1.00
18779;DHT22;9518;51.720;14.384;2022-08-25T12:59:11;35.00;1.00
18779;DHT22;9518;51.720;14.384;2022-08-25T13:02:00;35.10;1.00
18779;DHT22;9518;51.720;14.384;2022-08-25T13:05:02;34.60;1.00
18779;DHT22;9518;51.720;14.384;2022-08-25T13:07:57;34.90;1.00
18779;DHT22;9518;51.720;14.384;2022-08-25T13:10:43;35.60;1.00
18779;DHT22;9518;51.720;14.384;2022-08-25T13:13:16;35.10;1.00
18779;DHT22;9518;51.720;14.384;2022-08-25T13:15:58;35.50;1.00
18779;DHT22;9518;51.720;14.384;2022-08-25T13:18:26;35.80;1.00
18779;DHT22;9518;51.720;14.384;2022-08-25T13:21:02;35.60;1.00
18779;DHT22;9518;51.720;14.384;2022-08-25T13:23:34;34.60;1.00
18779;DHT22;9518;51.720;14.384;2022-08-25T13:26:02;34.90;1.00
18779;DHT22;9518;51.720;14.384;2022-08-25T13:28:31;34.50;1.00
18779;DHT22;9518;51.720;14.384;2022-08-25T13:31:03;34.20;1.00
18779;DHT22;9518;51.720;14.384;2022-08-25T13:33:30;34.30;1.00
18779;DHT22;9518;51.720;14.384;2022-08-25T13:35:58;34.40;1.00
18779;DHT22;9518;51.720;14.384;2022-08-25T13:38:46;35.30;1.00
18779;DHT22;9518;51.720;14.384;2022-08-25T13:41:18;35.90;1.00
18779;DHT22;9518;51.720;14.384;2022-08-25T13:43:45;36.30;1.00
18779;DHT22;9518;51.720;14.384;2022-08-25T13:46:17;36.40;1.00
18779;DHT22;9518;51.720;14.384;2022-08-25T13:48:44;36.30;1.00
18779;DHT22;9518;51.720;14.384;2022-08-25T13:51:18;35.70;1.00
18779;DHT22;9518;51.720;14.384;2022-08-25T13:53:53;35.80;1.00
18779;DHT22;9518;51.720;14.384;2022-08-25T13:56:30;35.70;1.00
18779;DHT22;9518;51.720;14.384;2022-08-25T13:58:59;35.40;1.00
18779;DHT22;9518;51.720;14.384;2022-08-25T14:01:28;35.50;1.00
18779;DHT22;9518;51.720;14.384;2022-08-25T14:04:17;35.90;1.00
18779;DHT22;9518;51.720;14.384;2022-08-25T14:06:44;35.90;1.00
18779;DHT22;9518;51.720;14.384;2022-08-25T14:09:14;36.30;1.00
18779;DHT22;9518;51.720;14.384;2022-08-25T14:11:44;36.00;1.00
18779;DHT22;9518;51.720;14.384;2022-08-25T14:14:28;36.50;1.00
18779;DHT22;9518;51.720;14.384;2022-08-25T14:16:59;36.70;1.00
18779;DHT22;9518;51.720;14.384;2022-08-25T14:19:27;36.60;1.00
18779;DHT22;9518;51.720;14.384;2022-08-25T14:21:56;37.20;1.00
18779;DHT22;9518;51.720;14.384;2022-08-25T14:24:32;37.40;1.00
18779;DHT22;9518;51.720;14.384;2022-08-25T14:27:00;37.80;1.00
18779;DHT22;9518;51.720;14.384;2022-08-25T14:29:27;37.50;1.00
18779;DHT22;9518;51.720;14.384;2022-08-25T14:31:55;38.00;1.00
18779;DHT22;9518;51.720;14.384;2022-08-25T14:34:24;38.80;1.00
18779;DHT22;9518;51.720;14.384;2022-08-25T14:36:52;38.70;1.00
18779;DHT22;9518;51.720;14.384;2022-08-25T14:39:19;38.10;1.00
18779;DHT22;9518;51.720;14.384;2022-08-25T14:41:48;38.30;1.00
18779;DHT22;9518;51.720;14.384;2022-08-25T14:44:15;39.10;1.00
18779;DHT22;9518;51.720;14.384;2022-08-25T14:46:46;38.80;1.00
18779;DHT22;9518;51.720;14.384;2022-08-25T14:49:18;39.20;1.00
18779;DHT22;9518;51.720;14.384;2022-08-25T14:51:47;39.30;1.00
18779;DHT22;9518;51.720;14.384;2022-08-25T14:54:15;39.80;1.00
18779;DHT22;9518;51.720;14.384;2022-08-25T14:56:44;39.40;1.00
18779;DHT22;9518;51.720;14.384;2022-08-25T14:59:13;38.60;1.00
18779;DHT22;9518;51.720;14.384;2022-08-25T15:01:40;38.80;1.00
18779;DHT22;9518;51.720;14.384;2022-08-25T15:04:10;38.70;1.00
18779;DHT22;9518;51.720;14.384;2022-08-25T15:06:39;38.80;1.00
18779;DHT22;9518;51.720;14.384;2022-08-25T15:09:09;38.20;1.00
18779;DHT22;9518;51.720;14.384;2022-08-25T15:11:38;37.30;1.00
18779;DHT22;9518;51.720;14.384;2022-08-25T15:14:05;37.50;1.00
18779;DHT22;9518;51.720;14.384;2022-08-25T15:16:36;37.50;1.00
18779;DHT22;9518;51.720;14.384;2022-08-25T15:19:04;37.60;1.00
18779;DHT22;9518;51.720;14.384;2022-08-25T15:21:31;37.40;1.00
18779;DHT22;9518;51.720;14.384;2022-08-25T15:23:58;38.00;1.00
18779;DHT22;9518;51.720;14.384;2022-08-25T15:26:26;38.20;1.00
18779;DHT22;9518;51.720;14.384;2022-08-25T15:28:53;37.70;1.00
18779;DHT22;9518;51.720;14.384;2022-08-25T15:31:20;37.60;1.00
18779;DHT22;9518;51.720;14.384;2022-08-25T15:33:49;37.40;1.00
18779;DHT22;9518;51.720;14.384;2022-08-25T15:36:24;37.20;1.00
18779;DHT22;9518;51.720;14.384;2022-08-25T15:38:51;37.20;1.00
18779;DHT22;9518;51.720;14.384;2022-08-25T15:41:19;36.50;1.00
18779;DHT22;9518;51.720;14.384;2022-08-25T15:43:47;36.70;1.00
18779;DHT22;9518;51.720;14.384;2022-08-25T15:46:18;36.60;1.00
18779;DHT22;9518;51.720;14.384;2022-08-25T15:48:46;37.00;1.00
18779;DHT22;9518;51.720;14.384;2022-08-25T15:51:16;36.70;1.00
18779;DHT22;9518;51.720;14.384;2022-08-25T15:53:43;36.10;1.00
18779;DHT22;9518;51.720;14.384;2022-08-25T15:56:10;36.00;1.00
18779;DHT22;9518;51.720;14.384;2022-08-25T15:58:39;35.80;1.00
18779;DHT22;9518;51.720;14.384;2022-08-25T16:01:06;36.10;1.00
18779;DHT22;9518;51.720;14.384;2022-08-25T16:03:33;36.40;1.00
18779;DHT22;9518;51.720;14.384;2022-08-25T16:06:02;36.60;1.00
18779;DHT22;9518;51.720;14.384;2022-08-25T16:08:30;36.40;1.00